KSNA/SNA METAR and TAF weather

Enter ICAO airport designator
Station Type Date Time Source
KSNA METAR 2019/08/20 08:53 UTC NOAA

KSNA 200853Z AUTO 00000KT 10SM CLR 20/16 A2991 RMK AO2 SLP127 T02000156 58002


Station Type Date Time Source
KSNA Decoded METAR 2019/08/20 08:53 UTC NOAA

SANTA ANA WAYNE ORANGE CTY, CA, United States (KSNA) 33-41N 117-52W 15M
Aug 20, 2019 - 04:53 AM EDT / 2019.08.20 0853 UTC
Wind: Calm:0
Visibility: 10 mile(s):0
Sky conditions: clear
Temperature: 68.0 F (20.0 C)
Dew Point: 60.1 F (15.6 C)
Relative Humidity: 75%
Pressure (altimeter): 29.91 in. Hg (1012 hPa)
Pressure tendency: 0.01 inches (0.2 hPa) lower than three hours ago
ob: KSNA 200853Z AUTO 00000KT 10SM CLR 20/16 A2991 RMK AO2 SLP127 T02000156 58002
cycle: 9

Station Type Date Time Source
KSNA TAF 2019/08/20 09:48 UTC NOAA

TAF
AMD KSNA 200846Z 2009/2106 VRB04KT P6SM FEW013
TEMPO 2012/2014 BKN010
FM202000 23008KT P6SM SKC
FM210200 VRB04KT P6SM FEW010

Example: see airport list